Hazel Hurst, Pennsylvania
Current Conditions -  °F | °C
As of 6:22 PM on Friday 31 Oct 2014 (Local Time) from KBFD Reporting Station
Light Rain Light Rain  
Wind Chill: 38°   Ceiling: 900
Heat Index: 38°   Visibility: 6mi
Dew Point: 36°   Wind: 0mph
Humidity: 93%   Direction: NA
Pressure: 29.88"   Gusts: NA
Location:  41.71°N, 78.58°W
Report Text: KBFD 312222Z AUTO 00000KT 6SM -RA BR BKN009 OVC027 03/02 A2988 RMK AO2 P0001 T00330022
Loading
Personal Weather Stations






























Interactive Weather Map
Tropical Storm Tracking
New forecast layout! Learn more

10-Day Weather Forecast

Advertisements
Track Severe Weather on mobile